sensor_id;sensor_type;location;lat;lon;timestamp;P1;durP1;ratioP1;P2;durP2;ratioP2
37339;SDS011;23223;51.006;7.610;2024-02-15T00:00:09;3.53;;;2.33;;
37339;SDS011;23223;51.006;7.610;2024-02-15T00:02:36;1.90;;;1.80;;
37339;SDS011;23223;51.006;7.610;2024-02-15T00:05:01;2.63;;;1.52;;
37339;SDS011;23223;51.006;7.610;2024-02-15T00:07:27;2.95;;;1.83;;
37339;SDS011;23223;51.006;7.610;2024-02-15T00:09:53;1.83;;;1.60;;
37339;SDS011;23223;51.006;7.610;2024-02-15T00:12:21;2.97;;;2.00;;
37339;SDS011;23223;51.006;7.610;2024-02-15T00:14:47;8.05;;;2.55;;
37339;SDS011;23223;51.006;7.610;2024-02-15T00:17:13;4.30;;;2.08;;
37339;SDS011;23223;51.006;7.610;2024-02-15T00:19:38;5.78;;;2.20;;
37339;SDS011;23223;51.006;7.610;2024-02-15T00:22:06;2.55;;;2.03;;
37339;SDS011;23223;51.006;7.610;2024-02-15T00:24:32;4.13;;;2.33;;
37339;SDS011;23223;51.006;7.610;2024-02-15T00:26:57;3.65;;;1.80;;
37339;SDS011;23223;51.006;7.610;2024-02-15T00:29:23;3.08;;;1.85;;
37339;SDS011;23223;51.006;7.610;2024-02-15T00:31:49;2.45;;;2.17;;
37339;SDS011;23223;51.006;7.610;2024-02-15T00:34:15;4.65;;;2.83;;
37339;SDS011;23223;51.006;7.610;2024-02-15T00:36:44;5.68;;;2.10;;
37339;SDS011;23223;51.006;7.610;2024-02-15T00:39:10;3.92;;;2.53;;
37339;SDS011;23223;51.006;7.610;2024-02-15T00:41:37;5.82;;;3.03;;
37339;SDS011;23223;51.006;7.610;2024-02-15T00:44:06;6.55;;;2.75;;
37339;SDS011;23223;51.006;7.610;2024-02-15T00:46:33;3.55;;;2.50;;
37339;SDS011;23223;51.006;7.610;2024-02-15T00:48:59;2.60;;;1.63;;
37339;SDS011;23223;51.006;7.610;2024-02-15T00:51:25;3.83;;;1.88;;
37339;SDS011;23223;51.006;7.610;2024-02-15T00:53:51;3.28;;;2.97;;
37339;SDS011;23223;51.006;7.610;2024-02-15T00:56:16;4.57;;;2.20;;
37339;SDS011;23223;51.006;7.610;2024-02-15T00:58:42;7.80;;;2.55;;
37339;SDS011;23223;51.006;7.610;2024-02-15T01:01:08;1.98;;;1.52;;
37339;SDS011;23223;51.006;7.610;2024-02-15T01:03:35;4.05;;;2.15;;
37339;SDS011;23223;51.006;7.610;2024-02-15T01:06:01;6.53;;;2.78;;
37339;SDS011;23223;51.006;7.610;2024-02-15T01:08:27;4.10;;;1.92;;
37339;SDS011;23223;51.006;7.610;2024-02-15T01:10:53;6.70;;;2.90;;
37339;SDS011;23223;51.006;7.610;2024-02-15T01:13:19;1.40;;;1.30;;
37339;SDS011;23223;51.006;7.610;2024-02-15T01:15:45;6.25;;;2.28;;
37339;SDS011;23223;51.006;7.610;2024-02-15T01:18:11;8.38;;;2.97;;
37339;SDS011;23223;51.006;7.610;2024-02-15T01:20:37;3.78;;;2.50;;
37339;SDS011;23223;51.006;7.610;2024-02-15T01:23:03;7.38;;;2.35;;
37339;SDS011;23223;51.006;7.610;2024-02-15T01:25:30;10.73;;;2.97;;
37339;SDS011;23223;51.006;7.610;2024-02-15T01:27:55;5.07;;;3.28;;
37339;SDS011;23223;51.006;7.610;2024-02-15T01:30:21;5.95;;;2.10;;
37339;SDS011;23223;51.006;7.610;2024-02-15T01:32:47;5.28;;;2.33;;
37339;SDS011;23223;51.006;7.610;2024-02-15T01:35:12;2.03;;;1.52;;
37339;SDS011;23223;51.006;7.610;2024-02-15T01:37:38;4.97;;;2.20;;
37339;SDS011;23223;51.006;7.610;2024-02-15T01:40:04;9.30;;;2.55;;
37339;SDS011;23223;51.006;7.610;2024-02-15T01:42:31;4.63;;;2.30;;
37339;SDS011;23223;51.006;7.610;2024-02-15T01:44:57;4.20;;;2.03;;
37339;SDS011;23223;51.006;7.610;2024-02-15T01:47:23;5.60;;;2.10;;
37339;SDS011;23223;51.006;7.610;2024-02-15T01:49:49;5.70;;;2.20;;
37339;SDS011;23223;51.006;7.610;2024-02-15T01:52:17;6.38;;;2.67;;
37339;SDS011;23223;51.006;7.610;2024-02-15T01:54:43;7.88;;;3.25;;
37339;SDS011;23223;51.006;7.610;2024-02-15T01:57:10;8.13;;;2.65;;
37339;SDS011;23223;51.006;7.610;2024-02-15T01:59:35;5.70;;;2.45;;
37339;SDS011;23223;51.006;7.610;2024-02-15T02:02:02;3.75;;;1.80;;
37339;SDS011;23223;51.006;7.610;2024-02-15T02:04:33;6.22;;;2.47;;
37339;SDS011;23223;51.006;7.610;2024-02-15T02:06:58;2.15;;;1.85;;
37339;SDS011;23223;51.006;7.610;2024-02-15T02:09:24;2.50;;;1.52;;
37339;SDS011;23223;51.006;7.610;2024-02-15T02:11:50;7.40;;;2.78;;
37339;SDS011;23223;51.006;7.610;2024-02-15T02:14:16;6.10;;;1.63;;
37339;SDS011;23223;51.006;7.610;2024-02-15T02:16:42;4.78;;;2.70;;
37339;SDS011;23223;51.006;7.610;2024-02-15T02:19:07;4.13;;;2.03;;
37339;SDS011;23223;51.006;7.610;2024-02-15T02:21:34;7.88;;;2.45;;
37339;SDS011;23223;51.006;7.610;2024-02-15T02:24:01;2.42;;;1.30;;
37339;SDS011;23223;51.006;7.610;2024-02-15T02:26:32;3.80;;;2.20;;
37339;SDS011;23223;51.006;7.610;2024-02-15T02:29:02;8.15;;;2.60;;
37339;SDS011;23223;51.006;7.610;2024-02-15T02:31:32;1.15;;;1.05;;
37339;SDS011;23223;51.006;7.610;2024-02-15T02:33:59;6.85;;;2.40;;
37339;SDS011;23223;51.006;7.610;2024-02-15T02:36:25;5.65;;;2.15;;
37339;SDS011;23223;51.006;7.610;2024-02-15T02:38:52;3.63;;;1.95;;
37339;SDS011;23223;51.006;7.610;2024-02-15T02:41:18;4.55;;;1.85;;
37339;SDS011;23223;51.006;7.610;2024-02-15T02:43:48;4.75;;;1.52;;
37339;SDS011;23223;51.006;7.610;2024-02-15T02:46:13;7.55;;;2.13;;
37339;SDS011;23223;51.006;7.610;2024-02-15T02:48:39;2.83;;;1.25;;
37339;SDS011;23223;51.006;7.610;2024-02-15T02:51:06;2.47;;;1.10;;
37339;SDS011;23223;51.006;7.610;2024-02-15T02:53:32;7.25;;;2.55;;
37339;SDS011;23223;51.006;7.610;2024-02-15T02:55:57;3.35;;;2.10;;
37339;SDS011;23223;51.006;7.610;2024-02-15T02:58:23;10.57;;;2.33;;
37339;SDS011;23223;51.006;7.610;2024-02-15T03:00:49;4.30;;;2.33;;
37339;SDS011;23223;51.006;7.610;2024-02-15T03:03:15;5.07;;;2.78;;
37339;SDS011;23223;51.006;7.610;2024-02-15T03:05:41;8.32;;;3.17;;
37339;SDS011;23223;51.006;7.610;2024-02-15T03:08:13;4.38;;;2.83;;
37339;SDS011;23223;51.006;7.610;2024-02-15T03:10:38;4.18;;;3.00;;
37339;SDS011;23223;51.006;7.610;2024-02-15T03:13:05;5.50;;;2.80;;
37339;SDS011;23223;51.006;7.610;2024-02-15T03:15:34;8.13;;;2.70;;
37339;SDS011;23223;51.006;7.610;2024-02-15T03:18:00;2.90;;;1.73;;
37339;SDS011;23223;51.006;7.610;2024-02-15T03:20:25;3.92;;;2.80;;
37339;SDS011;23223;51.006;7.610;2024-02-15T03:22:54;5.55;;;2.95;;
37339;SDS011;23223;51.006;7.610;2024-02-15T03:25:21;5.03;;;2.92;;
37339;SDS011;23223;51.006;7.610;2024-02-15T03:27:50;2.88;;;1.80;;
37339;SDS011;23223;51.006;7.610;2024-02-15T03:30:20;5.03;;;3.13;;
37339;SDS011;23223;51.006;7.610;2024-02-15T03:32:46;10.13;;;2.88;;
37339;SDS011;23223;51.006;7.610;2024-02-15T03:35:13;3.15;;;2.15;;
37339;SDS011;23223;51.006;7.610;2024-02-15T03:37:40;7.80;;;3.28;;
37339;SDS011;23223;51.006;7.610;2024-02-15T03:40:06;4.00;;;3.10;;
37339;SDS011;23223;51.006;7.610;2024-02-15T03:42:33;4.70;;;2.70;;
37339;SDS011;23223;51.006;7.610;2024-02-15T03:45:02;10.55;;;3.00;;
37339;SDS011;23223;51.006;7.610;2024-02-15T03:47:34;4.43;;;2.40;;
37339;SDS011;23223;51.006;7.610;2024-02-15T03:50:01;4.72;;;2.80;;
37339;SDS011;23223;51.006;7.610;2024-02-15T03:52:31;4.85;;;3.03;;
37339;SDS011;23223;51.006;7.610;2024-02-15T03:54:57;4.75;;;2.90;;
37339;SDS011;23223;51.006;7.610;2024-02-15T03:57:23;4.00;;;2.67;;
37339;SDS011;23223;51.006;7.610;2024-02-15T03:59:49;6.13;;;2.83;;
37339;SDS011;23223;51.006;7.610;2024-02-15T04:02:19;6.35;;;2.75;;
37339;SDS011;23223;51.006;7.610;2024-02-15T04:04:45;9.88;;;3.25;;
37339;SDS011;23223;51.006;7.610;2024-02-15T04:07:14;4.05;;;1.73;;
37339;SDS011;23223;51.006;7.610;2024-02-15T04:09:41;5.53;;;2.67;;
37339;SDS011;23223;51.006;7.610;2024-02-15T04:12:07;6.95;;;2.80;;
37339;SDS011;23223;51.006;7.610;2024-02-15T04:14:33;5.80;;;2.88;;
37339;SDS011;23223;51.006;7.610;2024-02-15T04:16:59;6.75;;;3.30;;
37339;SDS011;23223;51.006;7.610;2024-02-15T04:19:26;12.05;;;3.80;;
37339;SDS011;23223;51.006;7.610;2024-02-15T04:21:52;7.72;;;3.22;;
37339;SDS011;23223;51.006;7.610;2024-02-15T04:24:20;4.85;;;2.05;;
37339;SDS011;23223;51.006;7.610;2024-02-15T04:26:46;9.77;;;3.40;;
37339;SDS011;23223;51.006;7.610;2024-02-15T04:29:13;6.32;;;3.33;;
37339;SDS011;23223;51.006;7.610;2024-02-15T04:31:45;8.50;;;3.25;;
37339;SDS011;23223;51.006;7.610;2024-02-15T04:34:14;9.40;;;3.00;;
37339;SDS011;23223;51.006;7.610;2024-02-15T04:36:40;2.53;;;1.50;;
37339;SDS011;23223;51.006;7.610;2024-02-15T04:39:07;5.63;;;2.25;;
37339;SDS011;23223;51.006;7.610;2024-02-15T04:41:35;5.85;;;3.25;;
37339;SDS011;23223;51.006;7.610;2024-02-15T04:44:00;5.75;;;3.13;;
37339;SDS011;23223;51.006;7.610;2024-02-15T04:46:27;6.13;;;3.47;;
37339;SDS011;23223;51.006;7.610;2024-02-15T04:48:54;5.82;;;3.25;;
37339;SDS011;23223;51.006;7.610;2024-02-15T04:51:20;4.25;;;2.80;;
37339;SDS011;23223;51.006;7.610;2024-02-15T04:53:46;5.30;;;2.88;;
37339;SDS011;23223;51.006;7.610;2024-02-15T04:56:13;5.65;;;2.85;;
37339;SDS011;23223;51.006;7.610;2024-02-15T04:58:42;5.30;;;3.28;;
37339;SDS011;23223;51.006;7.610;2024-02-15T05:01:16;8.05;;;3.58;;
37339;SDS011;23223;51.006;7.610;2024-02-15T05:03:42;8.30;;;3.65;;
37339;SDS011;23223;51.006;7.610;2024-02-15T05:06:11;6.55;;;2.85;;
37339;SDS011;23223;51.006;7.610;2024-02-15T05:08:40;8.68;;;3.80;;
37339;SDS011;23223;51.006;7.610;2024-02-15T05:11:09;8.90;;;3.60;;
37339;SDS011;23223;51.006;7.610;2024-02-15T05:13:43;5.78;;;3.63;;
37339;SDS011;23223;51.006;7.610;2024-02-15T05:16:12;5.97;;;3.47;;
37339;SDS011;23223;51.006;7.610;2024-02-15T05:18:38;12.15;;;3.85;;
37339;SDS011;23223;51.006;7.610;2024-02-15T05:21:05;6.13;;;3.75;;
37339;SDS011;23223;51.006;7.610;2024-02-15T05:23:43;10.15;;;3.30;;
37339;SDS011;23223;51.006;7.610;2024-02-15T05:26:11;4.60;;;2.88;;
37339;SDS011;23223;51.006;7.610;2024-02-15T05:28:37;6.97;;;3.75;;
37339;SDS011;23223;51.006;7.610;2024-02-15T05:31:12;2.42;;;1.60;;
37339;SDS011;23223;51.006;7.610;2024-02-15T05:33:42;3.25;;;2.85;;
37339;SDS011;23223;51.006;7.610;2024-02-15T05:36:18;12.48;;;3.88;;
37339;SDS011;23223;51.006;7.610;2024-02-15T05:38:45;6.32;;;3.83;;
37339;SDS011;23223;51.006;7.610;2024-02-15T05:41:12;4.25;;;2.95;;
37339;SDS011;23223;51.006;7.610;2024-02-15T05:43:38;5.28;;;3.50;;
37339;SDS011;23223;51.006;7.610;2024-02-15T05:46:06;4.90;;;2.10;;
37339;SDS011;23223;51.006;7.610;2024-02-15T05:48:32;9.27;;;3.33;;
37339;SDS011;23223;51.006;7.610;2024-02-15T05:51:00;7.82;;;3.47;;
37339;SDS011;23223;51.006;7.610;2024-02-15T05:53:26;9.05;;;3.28;;
37339;SDS011;23223;51.006;7.610;2024-02-15T05:55:52;9.13;;;3.63;;
37339;SDS011;23223;51.006;7.610;2024-02-15T05:58:18;8.90;;;3.78;;
37339;SDS011;23223;51.006;7.610;2024-02-15T06:00:43;8.45;;;3.60;;
37339;SDS011;23223;51.006;7.610;2024-02-15T06:03:10;6.90;;;3.05;;
37339;SDS011;23223;51.006;7.610;2024-02-15T06:05:39;5.63;;;4.00;;
37339;SDS011;23223;51.006;7.610;2024-02-15T06:08:05;7.22;;;3.05;;
37339;SDS011;23223;51.006;7.610;2024-02-15T06:10:31;8.25;;;3.13;;
37339;SDS011;23223;51.006;7.610;2024-02-15T06:12:56;9.60;;;4.65;;
37339;SDS011;23223;51.006;7.610;2024-02-15T06:15:25;13.00;;;5.32;;
37339;SDS011;23223;51.006;7.610;2024-02-15T06:17:51;3.95;;;3.13;;
37339;SDS011;23223;51.006;7.610;2024-02-15T06:20:17;4.90;;;3.35;;
37339;SDS011;23223;51.006;7.610;2024-02-15T06:22:44;15.23;;;4.00;;
37339;SDS011;23223;51.006;7.610;2024-02-15T06:25:11;7.22;;;4.63;;
37339;SDS011;23223;51.006;7.610;2024-02-15T06:27:38;8.02;;;5.30;;
37339;SDS011;23223;51.006;7.610;2024-02-15T06:30:08;12.45;;;7.05;;
37339;SDS011;23223;51.006;7.610;2024-02-15T06:32:53;11.05;;;5.75;;
37339;SDS011;23223;51.006;7.610;2024-02-15T06:35:37;9.05;;;4.60;;
37339;SDS011;23223;51.006;7.610;2024-02-15T06:38:23;7.22;;;3.90;;
37339;SDS011;23223;51.006;7.610;2024-02-15T06:41:07;8.00;;;5.45;;
37339;SDS011;23223;51.006;7.610;2024-02-15T06:43:34;9.57;;;5.28;;
37339;SDS011;23223;51.006;7.610;2024-02-15T06:46:06;9.32;;;4.75;;
37339;SDS011;23223;51.006;7.610;2024-02-15T06:48:32;28.25;;;14.07;;
37339;SDS011;23223;51.006;7.610;2024-02-15T06:50:58;25.88;;;10.15;;
37339;SDS011;23223;51.006;7.610;2024-02-15T06:53:24;7.10;;;4.80;;
37339;SDS011;23223;51.006;7.610;2024-02-15T06:55:49;8.38;;;4.95;;
37339;SDS011;23223;51.006;7.610;2024-02-15T06:58:18;13.93;;;6.97;;
37339;SDS011;23223;51.006;7.610;2024-02-15T07:00:45;28.92;;;10.18;;
37339;SDS011;23223;51.006;7.610;2024-02-15T07:03:10;14.23;;;6.13;;
37339;SDS011;23223;51.006;7.610;2024-02-15T07:05:36;16.08;;;8.43;;
37339;SDS011;23223;51.006;7.610;2024-02-15T07:08:07;24.33;;;11.57;;
37339;SDS011;23223;51.006;7.610;2024-02-15T07:10:32;44.42;;;20.65;;
37339;SDS011;23223;51.006;7.610;2024-02-15T07:12:58;33.45;;;16.60;;
37339;SDS011;23223;51.006;7.610;2024-02-15T07:15:25;35.33;;;21.40;;
37339;SDS011;23223;51.006;7.610;2024-02-15T07:17:50;16.60;;;9.55;;
37339;SDS011;23223;51.006;7.610;2024-02-15T07:20:19;13.23;;;8.82;;
37339;SDS011;23223;51.006;7.610;2024-02-15T07:22:47;25.65;;;12.85;;
37339;SDS011;23223;51.006;7.610;2024-02-15T07:25:12;20.85;;;11.15;;
37339;SDS011;23223;51.006;7.610;2024-02-15T07:27:39;32.70;;;14.02;;
37339;SDS011;23223;51.006;7.610;2024-02-15T07:30:05;14.13;;;8.10;;
37339;SDS011;23223;51.006;7.610;2024-02-15T07:32:33;10.05;;;5.40;;
37339;SDS011;23223;51.006;7.610;2024-02-15T07:35:00;25.40;;;9.50;;
37339;SDS011;23223;51.006;7.610;2024-02-15T07:37:26;14.70;;;8.38;;
37339;SDS011;23223;51.006;7.610;2024-02-15T07:39:52;20.52;;;9.32;;
37339;SDS011;23223;51.006;7.610;2024-02-15T07:42:17;15.15;;;7.22;;
37339;SDS011;23223;51.006;7.610;2024-02-15T07:44:43;12.50;;;6.03;;
37339;SDS011;23223;51.006;7.610;2024-02-15T07:47:09;9.90;;;5.07;;
37339;SDS011;23223;51.006;7.610;2024-02-15T07:49:35;13.38;;;6.10;;
37339;SDS011;23223;51.006;7.610;2024-02-15T07:52:02;6.80;;;4.43;;
37339;SDS011;23223;51.006;7.610;2024-02-15T07:54:29;10.00;;;6.35;;
37339;SDS011;23223;51.006;7.610;2024-02-15T07:56:55;16.00;;;7.15;;
37339;SDS011;23223;51.006;7.610;2024-02-15T07:59:23;16.70;;;7.07;;
37339;SDS011;23223;51.006;7.610;2024-02-15T08:01:48;12.82;;;6.45;;
37339;SDS011;23223;51.006;7.610;2024-02-15T08:04:18;12.63;;;6.40;;
37339;SDS011;23223;51.006;7.610;2024-02-15T08:06:44;8.98;;;6.00;;
37339;SDS011;23223;51.006;7.610;2024-02-15T08:09:10;12.88;;;6.72;;
37339;SDS011;23223;51.006;7.610;2024-02-15T08:11:39;15.95;;;8.23;;
37339;SDS011;23223;51.006;7.610;2024-02-15T08:14:05;14.07;;;8.90;;
37339;SDS011;23223;51.006;7.610;2024-02-15T08:16:33;12.00;;;7.88;;
37339;SDS011;23223;51.006;7.610;2024-02-15T08:18:59;14.18;;;9.32;;
37339;SDS011;23223;51.006;7.610;2024-02-15T08:23:52;5.30;;;4.25;;
37339;SDS011;23223;51.006;7.610;2024-02-15T08:26:18;6.82;;;4.40;;
37339;SDS011;23223;51.006;7.610;2024-02-15T08:28:43;6.13;;;3.65;;
37339;SDS011;23223;51.006;7.610;2024-02-15T08:31:09;8.30;;;5.03;;
37339;SDS011;23223;51.006;7.610;2024-02-15T08:33:36;9.40;;;5.45;;
37339;SDS011;23223;51.006;7.610;2024-02-15T08:36:04;14.32;;;5.38;;
37339;SDS011;23223;51.006;7.610;2024-02-15T08:38:30;7.95;;;5.85;;
37339;SDS011;23223;51.006;7.610;2024-02-15T08:40:56;7.03;;;4.10;;
37339;SDS011;23223;51.006;7.610;2024-02-15T08:43:21;11.98;;;6.40;;
37339;SDS011;23223;51.006;7.610;2024-02-15T08:45:48;7.13;;;3.45;;
37339;SDS011;23223;51.006;7.610;2024-02-15T08:48:13;8.35;;;3.60;;
37339;SDS011;23223;51.006;7.610;2024-02-15T08:50:39;4.53;;;3.00;;
37339;SDS011;23223;51.006;7.610;2024-02-15T08:53:06;17.17;;;4.57;;
37339;SDS011;23223;51.006;7.610;2024-02-15T08:55:32;3.67;;;2.58;;
37339;SDS011;23223;51.006;7.610;2024-02-15T08:58:00;6.10;;;2.50;;
37339;SDS011;23223;51.006;7.610;2024-02-15T09:00:27;7.15;;;2.40;;
37339;SDS011;23223;51.006;7.610;2024-02-15T09:02:52;8.38;;;3.08;;
37339;SDS011;23223;51.006;7.610;2024-02-15T09:05:18;6.07;;;2.60;;
37339;SDS011;23223;51.006;7.610;2024-02-15T09:07:47;3.05;;;1.90;;
37339;SDS011;23223;51.006;7.610;2024-02-15T09:10:13;5.93;;;2.38;;
37339;SDS011;23223;51.006;7.610;2024-02-15T09:12:42;5.85;;;2.30;;
37339;SDS011;23223;51.006;7.610;2024-02-15T09:15:10;5.45;;;2.42;;
37339;SDS011;23223;51.006;7.610;2024-02-15T09:17:36;8.60;;;2.90;;
37339;SDS011;23223;51.006;7.610;2024-02-15T09:22:32;6.60;;;2.35;;
37339;SDS011;23223;51.006;7.610;2024-02-15T09:24:58;9.82;;;2.88;;
37339;SDS011;23223;51.006;7.610;2024-02-15T09:27:23;8.93;;;2.40;;
37339;SDS011;23223;51.006;7.610;2024-02-15T09:29:49;9.38;;;2.22;;
37339;SDS011;23223;51.006;7.610;2024-02-15T09:32:14;6.60;;;2.42;;
37339;SDS011;23223;51.006;7.610;2024-02-15T09:34:40;6.30;;;2.10;;
37339;SDS011;23223;51.006;7.610;2024-02-15T09:37:06;6.40;;;2.50;;
37339;SDS011;23223;51.006;7.610;2024-02-15T09:39:32;7.43;;;2.13;;
37339;SDS011;23223;51.006;7.610;2024-02-15T09:41:58;2.83;;;1.55;;
37339;SDS011;23223;51.006;7.610;2024-02-15T09:44:24;9.02;;;2.10;;
37339;SDS011;23223;51.006;7.610;2024-02-15T09:46:56;16.15;;;4.00;;
37339;SDS011;23223;51.006;7.610;2024-02-15T09:49:32;8.10;;;2.70;;
37339;SDS011;23223;51.006;7.610;2024-02-15T09:52:04;7.25;;;2.42;;
37339;SDS011;23223;51.006;7.610;2024-02-15T09:54:37;5.88;;;1.80;;
37339;SDS011;23223;51.006;7.610;2024-02-15T09:57:05;5.13;;;2.10;;
37339;SDS011;23223;51.006;7.610;2024-02-15T09:59:30;7.38;;;2.00;;
37339;SDS011;23223;51.006;7.610;2024-02-15T10:01:57;7.93;;;1.85;;
37339;SDS011;23223;51.006;7.610;2024-02-15T10:04:24;7.00;;;1.98;;
37339;SDS011;23223;51.006;7.610;2024-02-15T10:06:50;4.93;;;1.70;;
37339;SDS011;23223;51.006;7.610;2024-02-15T10:09:29;4.10;;;1.80;;
37339;SDS011;23223;51.006;7.610;2024-02-15T10:14:22;3.90;;;1.48;;
37339;SDS011;23223;51.006;7.610;2024-02-15T10:16:55;2.80;;;1.50;;
37339;SDS011;23223;51.006;7.610;2024-02-15T10:19:21;4.97;;;1.80;;
37339;SDS011;23223;51.006;7.610;2024-02-15T10:21:52;3.10;;;1.52;;
37339;SDS011;23223;51.006;7.610;2024-02-15T10:24:22;10.00;;;1.90;;
37339;SDS011;23223;51.006;7.610;2024-02-15T10:27:00;3.83;;;1.75;;
37339;SDS011;23223;51.006;7.610;2024-02-15T10:29:31;4.32;;;1.80;;
37339;SDS011;23223;51.006;7.610;2024-02-15T10:31:57;6.57;;;2.28;;
37339;SDS011;23223;51.006;7.610;2024-02-15T10:34:27;6.95;;;1.80;;
37339;SDS011;23223;51.006;7.610;2024-02-15T10:37:14;10.27;;;1.75;;
37339;SDS011;23223;51.006;7.610;2024-02-15T10:39:41;5.18;;;2.00;;
37339;SDS011;23223;51.006;7.610;2024-02-15T10:42:07;5.65;;;1.83;;
37339;SDS011;23223;51.006;7.610;2024-02-15T10:44:35;4.18;;;1.75;;
37339;SDS011;23223;51.006;7.610;2024-02-15T10:47:03;6.78;;;2.25;;
37339;SDS011;23223;51.006;7.610;2024-02-15T10:49:32;8.23;;;1.95;;
37339;SDS011;23223;51.006;7.610;2024-02-15T10:51:59;4.35;;;1.50;;
37339;SDS011;23223;51.006;7.610;2024-02-15T10:54:43;5.43;;;1.45;;
37339;SDS011;23223;51.006;7.610;2024-02-15T10:57:12;4.07;;;1.67;;
37339;SDS011;23223;51.006;7.610;2024-02-15T10:59:42;5.72;;;1.67;;
37339;SDS011;23223;51.006;7.610;2024-02-15T11:02:28;5.85;;;1.85;;
37339;SDS011;23223;51.006;7.610;2024-02-15T11:05:09;4.03;;;1.65;;
37339;SDS011;23223;51.006;7.610;2024-02-15T11:07:37;4.10;;;1.83;;
37339;SDS011;23223;51.006;7.610;2024-02-15T11:10:04;6.57;;;1.58;;
37339;SDS011;23223;51.006;7.610;2024-02-15T11:12:34;4.88;;;1.23;;
37339;SDS011;23223;51.006;7.610;2024-02-15T11:15:03;3.58;;;1.40;;
37339;SDS011;23223;51.006;7.610;2024-02-15T11:20:05;7.13;;;2.13;;
37339;SDS011;23223;51.006;7.610;2024-02-15T11:22:36;6.25;;;1.40;;
37339;SDS011;23223;51.006;7.610;2024-02-15T11:25:03;5.47;;;1.38;;
37339;SDS011;23223;51.006;7.610;2024-02-15T11:27:34;7.03;;;1.48;;
37339;SDS011;23223;51.006;7.610;2024-02-15T11:30:03;4.50;;;1.55;;
37339;SDS011;23223;51.006;7.610;2024-02-15T11:35:03;5.95;;;1.83;;
37339;SDS011;23223;51.006;7.610;2024-02-15T11:40:20;2.97;;;1.33;;
37339;SDS011;23223;51.006;7.610;2024-02-15T11:42:54;3.00;;;1.13;;
37339;SDS011;23223;51.006;7.610;2024-02-15T11:45:23;4.25;;;1.52;;
37339;SDS011;23223;51.006;7.610;2024-02-15T11:47:50;8.15;;;1.23;;
37339;SDS011;23223;51.006;7.610;2024-02-15T11:50:19;1.95;;;1.20;;
37339;SDS011;23223;51.006;7.610;2024-02-15T11:52:46;2.10;;;1.02;;
37339;SDS011;23223;51.006;7.610;2024-02-15T11:55:19;5.78;;;1.27;;
37339;SDS011;23223;51.006;7.610;2024-02-15T11:57:56;4.43;;;1.60;;
37339;SDS011;23223;51.006;7.610;2024-02-15T12:00:28;3.17;;;1.75;;
37339;SDS011;23223;51.006;7.610;2024-02-15T12:03:13;2.63;;;1.52;;
37339;SDS011;23223;51.006;7.610;2024-02-15T12:05:58;2.13;;;1.40;;
37339;SDS011;23223;51.006;7.610;2024-02-15T12:08:46;1.50;;;1.15;;
37339;SDS011;23223;51.006;7.610;2024-02-15T12:11:31;4.07;;;1.50;;
37339;SDS011;23223;51.006;7.610;2024-02-15T12:14:16;4.82;;;1.40;;
37339;SDS011;23223;51.006;7.610;2024-02-15T12:17:01;1.73;;;1.52;;
37339;SDS011;23223;51.006;7.610;2024-02-15T12:19:47;3.35;;;1.30;;
37339;SDS011;23223;51.006;7.610;2024-02-15T12:22:14;1.35;;;1.00;;
37339;SDS011;23223;51.006;7.610;2024-02-15T12:24:41;2.90;;;1.00;;
37339;SDS011;23223;51.006;7.610;2024-02-15T12:27:07;2.83;;;1.38;;
37339;SDS011;23223;51.006;7.610;2024-02-15T12:29:32;2.80;;;1.10;;
37339;SDS011;23223;51.006;7.610;2024-02-15T12:32:00;4.40;;;1.42;;
37339;SDS011;23223;51.006;7.610;2024-02-15T12:34:25;2.83;;;1.17;;
37339;SDS011;23223;51.006;7.610;2024-02-15T12:37:04;5.75;;;1.77;;
37339;SDS011;23223;51.006;7.610;2024-02-15T12:39:30;2.83;;;1.30;;
37339;SDS011;23223;51.006;7.610;2024-02-15T12:41:56;3.60;;;1.63;;
37339;SDS011;23223;51.006;7.610;2024-02-15T12:44:22;2.78;;;1.65;;
37339;SDS011;23223;51.006;7.610;2024-02-15T12:46:55;1.92;;;1.10;;
37339;SDS011;23223;51.006;7.610;2024-02-15T12:51:51;4.60;;;1.42;;
37339;SDS011;23223;51.006;7.610;2024-02-15T12:54:20;5.65;;;1.92;;
37339;SDS011;23223;51.006;7.610;2024-02-15T12:56:49;5.00;;;1.40;;
37339;SDS011;23223;51.006;7.610;2024-02-15T12:59:16;6.35;;;1.92;;
37339;SDS011;23223;51.006;7.610;2024-02-15T13:01:44;5.45;;;2.08;;
37339;SDS011;23223;51.006;7.610;2024-02-15T13:04:20;6.00;;;1.90;;
37339;SDS011;23223;51.006;7.610;2024-02-15T13:06:53;2.15;;;1.30;;
37339;SDS011;23223;51.006;7.610;2024-02-15T13:09:18;2.85;;;1.13;;
37339;SDS011;23223;51.006;7.610;2024-02-15T13:11:44;2.42;;;1.58;;
37339;SDS011;23223;51.006;7.610;2024-02-15T13:14:12;2.80;;;1.60;;
37339;SDS011;23223;51.006;7.610;2024-02-15T13:16:38;3.33;;;1.63;;
37339;SDS011;23223;51.006;7.610;2024-02-15T13:19:03;5.85;;;1.73;;
37339;SDS011;23223;51.006;7.610;2024-02-15T13:21:32;2.17;;;1.38;;
37339;SDS011;23223;51.006;7.610;2024-02-15T13:23:59;3.35;;;1.60;;
37339;SDS011;23223;51.006;7.610;2024-02-15T13:26:29;3.42;;;1.48;;
37339;SDS011;23223;51.006;7.610;2024-02-15T13:28:55;2.08;;;1.00;;
37339;SDS011;23223;51.006;7.610;2024-02-15T13:31:21;2.60;;;1.30;;
37339;SDS011;23223;51.006;7.610;2024-02-15T13:33:47;2.05;;;1.30;;
37339;SDS011;23223;51.006;7.610;2024-02-15T13:36:13;1.75;;;0.95;;
37339;SDS011;23223;51.006;7.610;2024-02-15T13:38:40;3.35;;;1.40;;
37339;SDS011;23223;51.006;7.610;2024-02-15T13:41:07;2.03;;;1.05;;
37339;SDS011;23223;51.006;7.610;2024-02-15T13:43:33;2.95;;;1.08;;
37339;SDS011;23223;51.006;7.610;2024-02-15T13:45:59;2.67;;;1.25;;
37339;SDS011;23223;51.006;7.610;2024-02-15T13:48:26;1.35;;;0.75;;
37339;SDS011;23223;51.006;7.610;2024-02-15T13:50:54;2.20;;;1.13;;
37339;SDS011;23223;51.006;7.610;2024-02-15T13:53:20;1.92;;;1.10;;
37339;SDS011;23223;51.006;7.610;2024-02-15T13:55:46;5.78;;;1.30;;
37339;SDS011;23223;51.006;7.610;2024-02-15T13:58:12;3.38;;;1.10;;
37339;SDS011;23223;51.006;7.610;2024-02-15T14:00:39;5.80;;;1.55;;
37339;SDS011;23223;51.006;7.610;2024-02-15T14:03:07;9.95;;;1.70;;
37339;SDS011;23223;51.006;7.610;2024-02-15T14:05:35;7.80;;;1.42;;
37339;SDS011;23223;51.006;7.610;2024-02-15T14:08:02;5.30;;;1.58;;
37339;SDS011;23223;51.006;7.610;2024-02-15T14:10:34;3.75;;;1.38;;
37339;SDS011;23223;51.006;7.610;2024-02-15T14:13:01;3.42;;;1.30;;
37339;SDS011;23223;51.006;7.610;2024-02-15T14:15:28;2.45;;;1.23;;
37339;SDS011;23223;51.006;7.610;2024-02-15T14:17:55;4.25;;;1.63;;
37339;SDS011;23223;51.006;7.610;2024-02-15T14:20:26;2.85;;;1.35;;
37339;SDS011;23223;51.006;7.610;2024-02-15T14:22:53;6.38;;;1.20;;
37339;SDS011;23223;51.006;7.610;2024-02-15T14:25:24;7.13;;;1.50;;
37339;SDS011;23223;51.006;7.610;2024-02-15T14:27:50;6.72;;;1.77;;
37339;SDS011;23223;51.006;7.610;2024-02-15T14:30:19;2.30;;;1.02;;
37339;SDS011;23223;51.006;7.610;2024-02-15T14:33:04;3.63;;;1.23;;
37339;SDS011;23223;51.006;7.610;2024-02-15T14:35:33;4.10;;;1.58;;
37339;SDS011;23223;51.006;7.610;2024-02-15T14:38:03;2.20;;;1.20;;
37339;SDS011;23223;51.006;7.610;2024-02-15T14:40:40;1.67;;;1.13;;
37339;SDS011;23223;51.006;7.610;2024-02-15T14:43:07;3.22;;;1.60;;
37339;SDS011;23223;51.006;7.610;2024-02-15T14:45:37;2.85;;;1.00;;
37339;SDS011;23223;51.006;7.610;2024-02-15T14:48:03;2.92;;;1.00;;
37339;SDS011;23223;51.006;7.610;2024-02-15T14:50:29;3.38;;;1.50;;
37339;SDS011;23223;51.006;7.610;2024-02-15T14:52:55;3.83;;;1.40;;
37339;SDS011;23223;51.006;7.610;2024-02-15T14:55:21;2.33;;;1.20;;
37339;SDS011;23223;51.006;7.610;2024-02-15T14:57:47;6.82;;;1.67;;
37339;SDS011;23223;51.006;7.610;2024-02-15T15:00:13;2.75;;;1.33;;
37339;SDS011;23223;51.006;7.610;2024-02-15T15:02:42;2.65;;;0.95;;
37339;SDS011;23223;51.006;7.610;2024-02-15T15:05:09;4.25;;;1.50;;
37339;SDS011;23223;51.006;7.610;2024-02-15T15:07:54;4.93;;;1.17;;